sensor_id;sensor_type;location;lat;lon;timestamp;pressure;altitude;pressure_sealevel;temperature;humidity
23164;BME280;31429;42.674;23.350;2022-11-04T00:00:03;94936.31;;;11.41;100.00
23164;BME280;31429;42.674;23.350;2022-11-04T00:01:05;94901.66;;;11.11;100.00
23164;BME280;31429;42.674;23.350;2022-11-04T00:02:05;94927.25;;;11.33;100.00
23164;BME280;31429;42.674;23.350;2022-11-04T00:03:06;94924.75;;;11.31;100.00
23164;BME280;31429;42.674;23.350;2022-11-04T00:04:07;94928.09;;;11.33;100.00
23164;BME280;31429;42.674;23.350;2022-11-04T00:05:08;94925.66;;;11.30;100.00
23164;BME280;31429;42.674;23.350;2022-11-04T00:06:09;94929.28;;;11.25;100.00
23164;BME280;31429;42.674;23.350;2022-11-04T00:07:10;94926.72;;;11.25;100.00
23164;BME280;31429;42.674;23.350;2022-11-04T00:08:30;94919.56;;;11.11;100.00
23164;BME280;31429;42.674;23.350;2022-11-04T00:09:31;94923.00;;;11.10;100.00
23164;BME280;31429;42.674;23.350;2022-11-04T00:10:31;94931.63;;;11.08;100.00
23164;BME280;31429;42.674;23.350;2022-11-04T00:11:51;94898.09;;;10.92;100.00
23164;BME280;31429;42.674;23.350;2022-11-04T00:13:10;94929.25;;;11.03;100.00
23164;BME280;31429;42.674;23.350;2022-11-04T00:14:13;94922.75;;;10.94;100.00
23164;BME280;31429;42.674;23.350;2022-11-04T00:15:14;94922.44;;;11.02;100.00
23164;BME280;31429;42.674;23.350;2022-11-04T00:16:50;94932.13;;;11.17;100.00
23164;BME280;31429;42.674;23.350;2022-11-04T00:18:09;94923.84;;;11.32;100.00
23164;BME280;31429;42.674;23.350;2022-11-04T00:19:09;94932.31;;;11.34;100.00
23164;BME280;31429;42.674;23.350;2022-11-04T00:20:10;94931.06;;;11.23;100.00
23164;BME280;31429;42.674;23.350;2022-11-04T00:21:30;94936.50;;;11.14;100.00
23164;BME280;31429;42.674;23.350;2022-11-04T00:23:06;94911.56;;;10.97;100.00
23164;BME280;31429;42.674;23.350;2022-11-04T00:24:25;94926.84;;;10.98;100.00
23164;BME280;31429;42.674;23.350;2022-11-04T00:25:49;94923.72;;;10.90;100.00
23164;BME280;31429;42.674;23.350;2022-11-04T00:27:08;94921.28;;;10.87;100.00
23164;BME280;31429;42.674;23.350;2022-11-04T00:28:28;94918.94;;;10.81;100.00
23164;BME280;31429;42.674;23.350;2022-11-04T00:29:45;94925.00;;;10.79;100.00
23164;BME280;31429;42.674;23.350;2022-11-04T00:30:46;94924.19;;;10.78;100.00
23164;BME280;31429;42.674;23.350;2022-11-04T00:31:46;94919.44;;;10.68;100.00
23164;BME280;31429;42.674;23.350;2022-11-04T00:33:06;94915.94;;;10.70;100.00
23164;BME280;31429;42.674;23.350;2022-11-04T00:34:25;94920.56;;;10.84;100.00
23164;BME280;31429;42.674;23.350;2022-11-04T00:35:25;94916.78;;;10.94;100.00
23164;BME280;31429;42.674;23.350;2022-11-04T00:36:26;94901.66;;;10.88;100.00
23164;BME280;31429;42.674;23.350;2022-11-04T00:37:27;94920.22;;;10.93;100.00
23164;BME280;31429;42.674;23.350;2022-11-04T00:38:27;94916.13;;;10.89;100.00
23164;BME280;31429;42.674;23.350;2022-11-04T00:39:28;94898.09;;;10.92;100.00
23164;BME280;31429;42.674;23.350;2022-11-04T00:40:29;94914.41;;;10.89;100.00
23164;BME280;31429;42.674;23.350;2022-11-04T00:41:29;94909.63;;;10.80;100.00
23164;BME280;31429;42.674;23.350;2022-11-04T00:42:30;94914.09;;;10.74;100.00
23164;BME280;31429;42.674;23.350;2022-11-04T00:43:31;94914.38;;;10.66;100.00
23164;BME280;31429;42.674;23.350;2022-11-04T00:44:32;94890.97;;;10.54;100.00
23164;BME280;31429;42.674;23.350;2022-11-04T00:45:34;94914.19;;;10.72;100.00
23164;BME280;31429;42.674;23.350;2022-11-04T00:46:35;94916.78;;;10.71;100.00
23164;BME280;31429;42.674;23.350;2022-11-04T00:47:35;94909.84;;;10.74;100.00
23164;BME280;31429;42.674;23.350;2022-11-04T00:48:36;94914.22;;;10.71;100.00
23164;BME280;31429;42.674;23.350;2022-11-04T00:49:36;94893.41;;;10.57;100.00
23164;BME280;31429;42.674;23.350;2022-11-04T00:50:41;94911.50;;;10.75;100.00
23164;BME280;31429;42.674;23.350;2022-11-04T00:51:41;94909.00;;;10.74;100.00
23164;BME280;31429;42.674;23.350;2022-11-04T00:52:42;94873.63;;;10.62;100.00
23164;BME280;31429;42.674;23.350;2022-11-04T00:53:43;94908.38;;;10.90;100.00
23164;BME280;31429;42.674;23.350;2022-11-04T00:54:44;94896.13;;;10.98;100.00
23164;BME280;31429;42.674;23.350;2022-11-04T00:55:44;94891.81;;;11.01;100.00
23164;BME280;31429;42.674;23.350;2022-11-04T00:56:45;94893.31;;;10.83;100.00
23164;BME280;31429;42.674;23.350;2022-11-04T00:57:47;94873.75;;;10.59;100.00
23164;BME280;31429;42.674;23.350;2022-11-04T00:58:48;94897.56;;;10.61;100.00
23164;BME280;31429;42.674;23.350;2022-11-04T00:59:49;94897.81;;;10.53;100.00
23164;BME280;31429;42.674;23.350;2022-11-04T01:00:51;94890.31;;;10.49;100.00
23164;BME280;31429;42.674;23.350;2022-11-04T01:01:52;94875.38;;;10.36;100.00
23164;BME280;31429;42.674;23.350;2022-11-04T01:02:53;94895.34;;;10.50;100.00
23164;BME280;31429;42.674;23.350;2022-11-04T01:03:55;94729.44;;;9.50;100.00
23164;BME280;31429;42.674;23.350;2022-11-04T01:04:56;94618.59;;;8.59;100.00
23164;BME280;31429;42.674;23.350;2022-11-04T01:05:57;94622.75;;;8.62;100.00
23164;BME280;31429;42.674;23.350;2022-11-04T01:06:58;94711.63;;;9.23;100.00
23164;BME280;31429;42.674;23.350;2022-11-04T01:07:59;94819.41;;;10.06;100.00
23164;BME280;31429;42.674;23.350;2022-11-04T01:09:04;94887.66;;;10.52;100.00
23164;BME280;31429;42.674;23.350;2022-11-04T01:10:06;94894.69;;;10.45;100.00
23164;BME280;31429;42.674;23.350;2022-11-04T01:11:08;94614.53;;;8.54;100.00
23164;BME280;31429;42.674;23.350;2022-11-04T01:12:09;94627.84;;;8.62;100.00
23164;BME280;31429;42.674;23.350;2022-11-04T01:13:10;94802.50;;;9.77;100.00
23164;BME280;31429;42.674;23.350;2022-11-04T01:14:12;94887.50;;;10.31;100.00
23164;BME280;31429;42.674;23.350;2022-11-04T01:15:13;94707.47;;;9.21;100.00
23164;BME280;31429;42.674;23.350;2022-11-04T01:16:15;94868.38;;;10.18;100.00
23164;BME280;31429;42.674;23.350;2022-11-04T01:17:16;94636.94;;;8.69;100.00
23164;BME280;31429;42.674;23.350;2022-11-04T01:18:17;94727.09;;;9.19;100.00
23164;BME280;31429;42.674;23.350;2022-11-04T01:19:18;94598.59;;;8.47;100.00
23164;BME280;31429;42.674;23.350;2022-11-04T01:20:19;94602.28;;;8.39;100.00
23164;BME280;31429;42.674;23.350;2022-11-04T01:21:20;94618.09;;;8.48;100.00
23164;BME280;31429;42.674;23.350;2022-11-04T01:22:20;94904.97;;;10.19;100.00
23164;BME280;31429;42.674;23.350;2022-11-04T01:23:22;94876.22;;;10.12;100.00
23164;BME280;31429;42.674;23.350;2022-11-04T01:24:23;94870.97;;;10.17;100.00
23164;BME280;31429;42.674;23.350;2022-11-04T01:25:24;94722.31;;;9.35;100.00
23164;BME280;31429;42.674;23.350;2022-11-04T01:26:26;94696.22;;;9.02;100.00
23164;BME280;31429;42.674;23.350;2022-11-04T01:27:27;94750.72;;;9.49;100.00
23164;BME280;31429;42.674;23.350;2022-11-04T01:28:28;94698.34;;;9.14;100.00
23164;BME280;31429;42.674;23.350;2022-11-04T01:29:29;94798.63;;;9.67;100.00
23164;BME280;31429;42.674;23.350;2022-11-04T01:30:30;94696.88;;;9.07;100.00
23164;BME280;31429;42.674;23.350;2022-11-04T01:31:33;94901.78;;;10.12;100.00
23164;BME280;31429;42.674;23.350;2022-11-04T01:32:33;94539.06;;;8.24;100.00
23164;BME280;31429;42.674;23.350;2022-11-04T01:33:35;94650.91;;;8.84;100.00
23164;BME280;31429;42.674;23.350;2022-11-04T01:34:36;94677.97;;;8.88;100.00
23164;BME280;31429;42.674;23.350;2022-11-04T01:35:37;94871.91;;;10.14;100.00
23164;BME280;31429;42.674;23.350;2022-11-04T01:36:37;94865.16;;;10.12;100.00
23164;BME280;31429;42.674;23.350;2022-11-04T01:37:38;94864.44;;;10.08;100.00
23164;BME280;31429;42.674;23.350;2022-11-04T01:38:39;94846.25;;;9.93;100.00
23164;BME280;31429;42.674;23.350;2022-11-04T01:39:40;94863.81;;;10.02;100.00
23164;BME280;31429;42.674;23.350;2022-11-04T01:40:40;94869.03;;;9.99;100.00
23164;BME280;31429;42.674;23.350;2022-11-04T01:41:41;94858.09;;;9.95;100.00
23164;BME280;31429;42.674;23.350;2022-11-04T01:42:42;94868.28;;;9.95;100.00
23164;BME280;31429;42.674;23.350;2022-11-04T01:43:44;94867.44;;;9.95;100.00
23164;BME280;31429;42.674;23.350;2022-11-04T01:44:51;94840.78;;;9.78;100.00
23164;BME280;31429;42.674;23.350;2022-11-04T01:45:55;94866.63;;;9.94;100.00
23164;BME280;31429;42.674;23.350;2022-11-04T01:46:59;94868.41;;;9.92;100.00
23164;BME280;31429;42.674;23.350;2022-11-04T01:48:03;94864.06;;;9.94;100.00
23164;BME280;31429;42.674;23.350;2022-11-04T01:49:21;94858.47;;;10.08;100.00
23164;BME280;31429;42.674;23.350;2022-11-04T01:50:25;94851.47;;;10.14;100.00
23164;BME280;31429;42.674;23.350;2022-11-04T01:51:28;94855.22;;;10.29;100.00
23164;BME280;31429;42.674;23.350;2022-11-04T01:52:34;94833.78;;;10.08;100.00
23164;BME280;31429;42.674;23.350;2022-11-04T01:53:39;94849.38;;;10.25;100.00
23164;BME280;31429;42.674;23.350;2022-11-04T01:54:42;94846.34;;;10.39;100.00
23164;BME280;31429;42.674;23.350;2022-11-04T01:55:50;94833.00;;;10.31;100.00
23164;BME280;31429;42.674;23.350;2022-11-04T01:56:52;94847.13;;;10.41;100.00
23164;BME280;31429;42.674;23.350;2022-11-04T01:57:56;94814.25;;;10.32;100.00
23164;BME280;31429;42.674;23.350;2022-11-04T01:59:04;94847.13;;;10.41;100.00
23164;BME280;31429;42.674;23.350;2022-11-04T02:00:10;94845.13;;;10.26;100.00
23164;BME280;31429;42.674;23.350;2022-11-04T02:01:11;94851.00;;;10.03;100.00
23164;BME280;31429;42.674;23.350;2022-11-04T02:02:13;94851.94;;;10.01;100.00
23164;BME280;31429;42.674;23.350;2022-11-04T02:03:16;94786.09;;;9.59;100.00
23164;BME280;31429;42.674;23.350;2022-11-04T02:04:18;94852.06;;;9.96;100.00
23164;BME280;31429;42.674;23.350;2022-11-04T02:05:26;94847.75;;;9.98;100.00
23164;BME280;31429;42.674;23.350;2022-11-04T02:06:28;94849.22;;;10.05;100.00
23164;BME280;31429;42.674;23.350;2022-11-04T02:07:29;94849.81;;;10.13;100.00
23164;BME280;31429;42.674;23.350;2022-11-04T02:08:30;94847.94;;;10.18;100.00
23164;BME280;31429;42.674;23.350;2022-11-04T02:09:32;94846.91;;;10.24;100.00
23164;BME280;31429;42.674;23.350;2022-11-04T02:10:34;94846.19;;;10.19;100.00
23164;BME280;31429;42.674;23.350;2022-11-04T02:11:34;94759.31;;;9.71;100.00
23164;BME280;31429;42.674;23.350;2022-11-04T02:12:54;94829.16;;;10.19;100.00
23164;BME280;31429;42.674;23.350;2022-11-04T02:13:56;94833.66;;;10.11;100.00
23164;BME280;31429;42.674;23.350;2022-11-04T02:14:57;94842.59;;;10.00;100.00
23164;BME280;31429;42.674;23.350;2022-11-04T02:16:03;94833.28;;;9.99;100.00
23164;BME280;31429;42.674;23.350;2022-11-04T02:17:23;94838.28;;;10.02;100.00
23164;BME280;31429;42.674;23.350;2022-11-04T02:18:38;94834.63;;;9.84;100.00
23164;BME280;31429;42.674;23.350;2022-11-04T02:20:05;94832.75;;;9.89;100.00
23164;BME280;31429;42.674;23.350;2022-11-04T02:21:35;94836.97;;;9.90;100.00
23164;BME280;31429;42.674;23.350;2022-11-04T02:24:49;94837.59;;;9.72;100.00
23164;BME280;31429;42.674;23.350;2022-11-04T02:26:21;94834.63;;;9.84;100.00
23164;BME280;31429;42.674;23.350;2022-11-04T02:27:51;94841.84;;;9.96;100.00
23164;BME280;31429;42.674;23.350;2022-11-04T02:29:11;94831.13;;;9.87;100.00
23164;BME280;31429;42.674;23.350;2022-11-04T02:30:15;94830.09;;;9.92;100.00
23164;BME280;31429;42.674;23.350;2022-11-04T02:31:21;94827.13;;;10.04;100.00
23164;BME280;31429;42.674;23.350;2022-11-04T02:32:33;94831.13;;;10.11;100.00
23164;BME280;31429;42.674;23.350;2022-11-04T02:33:40;94829.63;;;10.06;100.00
23164;BME280;31429;42.674;23.350;2022-11-04T02:34:54;94815.94;;;9.82;100.00
23164;BME280;31429;42.674;23.350;2022-11-04T02:36:02;94832.28;;;9.78;100.00
23164;BME280;31429;42.674;23.350;2022-11-04T02:37:11;94832.88;;;9.60;100.00
23164;BME280;31429;42.674;23.350;2022-11-04T02:38:24;94829.72;;;9.53;100.00
23164;BME280;31429;42.674;23.350;2022-11-04T02:39:34;94827.28;;;9.49;100.00
23164;BME280;31429;42.674;23.350;2022-11-04T02:40:40;94809.59;;;9.44;100.00
23164;BME280;31429;42.674;23.350;2022-11-04T02:41:49;94825.09;;;9.64;100.00
23164;BME280;31429;42.674;23.350;2022-11-04T02:42:54;94825.41;;;9.54;100.00
23164;BME280;31429;42.674;23.350;2022-11-04T02:44:09;94821.41;;;9.47;100.00
23164;BME280;31429;42.674;23.350;2022-11-04T02:45:16;94824.59;;;9.53;100.00
23164;BME280;31429;42.674;23.350;2022-11-04T02:46:23;94823.66;;;9.56;100.00
23164;BME280;31429;42.674;23.350;2022-11-04T02:47:29;94815.19;;;9.54;100.00
23164;BME280;31429;42.674;23.350;2022-11-04T02:48:34;94800.81;;;9.27;100.00
23164;BME280;31429;42.674;23.350;2022-11-04T02:49:41;94818.47;;;9.33;100.00
23164;BME280;31429;42.674;23.350;2022-11-04T02:50:47;94818.50;;;9.31;100.00
23164;BME280;31429;42.674;23.350;2022-11-04T02:51:53;94795.50;;;9.06;100.00
23164;BME280;31429;42.674;23.350;2022-11-04T02:53:01;94823.09;;;9.20;100.00
23164;BME280;31429;42.674;23.350;2022-11-04T02:54:08;94827.44;;;9.18;100.00
23164;BME280;31429;42.674;23.350;2022-11-04T02:55:13;94823.06;;;9.21;100.00
23164;BME280;31429;42.674;23.350;2022-11-04T02:56:18;94817.06;;;9.22;100.00
23164;BME280;31429;42.674;23.350;2022-11-04T02:57:23;94823.41;;;9.11;100.00
23164;BME280;31429;42.674;23.350;2022-11-04T02:58:29;94819.19;;;9.10;100.00
23164;BME280;31429;42.674;23.350;2022-11-04T02:59:35;94821.97;;;9.29;100.00
23164;BME280;31429;42.674;23.350;2022-11-04T03:00:40;94826.06;;;9.34;100.00
23164;BME280;31429;42.674;23.350;2022-11-04T03:01:42;94821.03;;;9.33;100.00
23164;BME280;31429;42.674;23.350;2022-11-04T03:02:49;94824.69;;;9.24;100.00
23164;BME280;31429;42.674;23.350;2022-11-04T03:03:55;94817.13;;;9.21;100.00
23164;BME280;31429;42.674;23.350;2022-11-04T03:04:58;94790.09;;;9.15;100.00
23164;BME280;31429;42.674;23.350;2022-11-04T03:06:00;94816.75;;;9.33;100.00
23164;BME280;31429;42.674;23.350;2022-11-04T03:07:05;94816.56;;;9.39;100.00
23164;BME280;31429;42.674;23.350;2022-11-04T03:08:09;94822.44;;;9.41;100.00
23164;BME280;31429;42.674;23.350;2022-11-04T03:09:14;94786.06;;;9.08;100.00
23164;BME280;31429;42.674;23.350;2022-11-04T03:10:21;94808.75;;;9.17;100.00
23164;BME280;31429;42.674;23.350;2022-11-04T03:11:24;94822.91;;;9.26;100.00
23164;BME280;31429;42.674;23.350;2022-11-04T03:12:30;94821.47;;;9.19;100.00
23164;BME280;31429;42.674;23.350;2022-11-04T03:13:35;94821.59;;;9.14;100.00
23164;BME280;31429;42.674;23.350;2022-11-04T03:14:41;94820.97;;;9.08;100.00
23164;BME280;31429;42.674;23.350;2022-11-04T03:15:47;94798.50;;;8.91;100.00
23164;BME280;31429;42.674;23.350;2022-11-04T03:16:52;94811.25;;;9.19;100.00
23164;BME280;31429;42.674;23.350;2022-11-04T03:17:58;94796.88;;;9.16;100.00
23164;BME280;31429;42.674;23.350;2022-11-04T03:19:07;94806.75;;;9.27;100.00
23164;BME280;31429;42.674;23.350;2022-11-04T03:20:15;94789.47;;;9.09;100.00
23164;BME280;31429;42.674;23.350;2022-11-04T03:21:18;94809.56;;;9.18;100.00
23164;BME280;31429;42.674;23.350;2022-11-04T03:22:21;94811.19;;;9.20;100.00
23164;BME280;31429;42.674;23.350;2022-11-04T03:23:22;94811.75;;;9.30;100.00
23164;BME280;31429;42.674;23.350;2022-11-04T03:24:23;94819.44;;;9.29;100.00
23164;BME280;31429;42.674;23.350;2022-11-04T03:25:26;94809.66;;;9.16;100.00
23164;BME280;31429;42.674;23.350;2022-11-04T03:26:34;94815.72;;;9.12;100.00
23164;BME280;31429;42.674;23.350;2022-11-04T03:27:44;94822.53;;;9.12;100.00
23164;BME280;31429;42.674;23.350;2022-11-04T03:28:53;94819.28;;;9.07;100.00
23164;BME280;31429;42.674;23.350;2022-11-04T03:30:03;94812.22;;;9.15;100.00
23164;BME280;31429;42.674;23.350;2022-11-04T03:31:13;94812.59;;;9.31;100.00
23164;BME280;31429;42.674;23.350;2022-11-04T03:32:21;94799.19;;;9.24;100.00
23164;BME280;31429;42.674;23.350;2022-11-04T03:33:27;94811.38;;;9.14;100.00
23164;BME280;31429;42.674;23.350;2022-11-04T03:34:32;94818.06;;;9.18;100.00
23164;BME280;31429;42.674;23.350;2022-11-04T03:35:33;94824.13;;;9.14;100.00
23164;BME280;31429;42.674;23.350;2022-11-04T03:36:33;94818.44;;;9.06;100.00
23164;BME280;31429;42.674;23.350;2022-11-04T03:37:34;94816.06;;;9.02;100.00
23164;BME280;31429;42.674;23.350;2022-11-04T03:38:35;94805.56;;;9.11;100.00
23164;BME280;31429;42.674;23.350;2022-11-04T03:39:37;94821.75;;;9.10;100.00
23164;BME280;31429;42.674;23.350;2022-11-04T03:40:39;94809.44;;;8.96;100.00
23164;BME280;31429;42.674;23.350;2022-11-04T03:41:45;94818.22;;;8.86;100.00
23164;BME280;31429;42.674;23.350;2022-11-04T03:42:52;94798.16;;;8.76;100.00
23164;BME280;31429;42.674;23.350;2022-11-04T03:43:56;94817.25;;;8.90;100.00
23164;BME280;31429;42.674;23.350;2022-11-04T03:44:58;94820.31;;;9.01;100.00
23164;BME280;31429;42.674;23.350;2022-11-04T03:46:01;94814.28;;;9.04;100.00
23164;BME280;31429;42.674;23.350;2022-11-04T03:47:02;94809.00;;;9.10;100.00
23164;BME280;31429;42.674;23.350;2022-11-04T03:48:04;94805.69;;;9.06;100.00
23164;BME280;31429;42.674;23.350;2022-11-04T03:49:05;94817.06;;;8.96;100.00
23164;BME280;31429;42.674;23.350;2022-11-04T03:50:10;94820.66;;;8.91;100.00
23164;BME280;31429;42.674;23.350;2022-11-04T03:51:13;94823.63;;;8.76;100.00
23164;BME280;31429;42.674;23.350;2022-11-04T03:52:14;94810.66;;;8.83;100.00
23164;BME280;31429;42.674;23.350;2022-11-04T03:53:19;94801.47;;;8.78;100.00
23164;BME280;31429;42.674;23.350;2022-11-04T03:54:21;94814.91;;;8.83;100.00
23164;BME280;31429;42.674;23.350;2022-11-04T03:55:24;94816.94;;;8.73;100.00
23164;BME280;31429;42.674;23.350;2022-11-04T03:56:53;94813.34;;;8.79;100.00
23164;BME280;31429;42.674;23.350;2022-11-04T03:57:59;94807.06;;;8.90;100.00
23164;BME280;31429;42.674;23.350;2022-11-04T03:59:15;94811.13;;;8.96;100.00
23164;BME280;31429;42.674;23.350;2022-11-04T04:00:23;94819.16;;;8.84;100.00
23164;BME280;31429;42.674;23.350;2022-11-04T04:01:32;94804.09;;;8.76;100.00
23164;BME280;31429;42.674;23.350;2022-11-04T04:02:51;94802.75;;;8.64;100.00
23164;BME280;31429;42.674;23.350;2022-11-04T04:03:58;94803.66;;;8.62;100.00
23164;BME280;31429;42.674;23.350;2022-11-04T04:05:02;94804.00;;;8.79;100.00
23164;BME280;31429;42.674;23.350;2022-11-04T04:06:09;94807.06;;;8.62;100.00
23164;BME280;31429;42.674;23.350;2022-11-04T04:07:12;94806.16;;;8.63;100.00
23164;BME280;31429;42.674;23.350;2022-11-04T04:08:19;94804.59;;;8.59;100.00
23164;BME280;31429;42.674;23.350;2022-11-04T04:09:30;94803.53;;;8.66;100.00
23164;BME280;31429;42.674;23.350;2022-11-04T04:10:38;94803.84;;;8.84;100.00
23164;BME280;31429;42.674;23.350;2022-11-04T04:11:44;94805.66;;;8.80;100.00
23164;BME280;31429;42.674;23.350;2022-11-04T04:12:48;94803.25;;;8.76;100.00
23164;BME280;31429;42.674;23.350;2022-11-04T04:13:54;94811.06;;;8.70;100.00
23164;BME280;31429;42.674;23.350;2022-11-04T04:15:02;94807.22;;;8.56;100.00
23164;BME280;31429;42.674;23.350;2022-11-04T04:16:08;94800.63;;;8.49;100.00
23164;BME280;31429;42.674;23.350;2022-11-04T04:17:16;94806.47;;;8.53;100.00
23164;BME280;31429;42.674;23.350;2022-11-04T04:18:25;94793.31;;;9.22;100.00
23164;BME280;31429;42.674;23.350;2022-11-04T04:19:29;94798.78;;;9.10;100.00
23164;BME280;31429;42.674;23.350;2022-11-04T04:20:33;94785.50;;;8.73;100.00
23164;BME280;31429;42.674;23.350;2022-11-04T04:21:38;94796.63;;;8.70;100.00
23164;BME280;31429;42.674;23.350;2022-11-04T04:22:43;94784.50;;;8.49;100.00
23164;BME280;31429;42.674;23.350;2022-11-04T04:23:46;94793.97;;;8.45;100.00
23164;BME280;31429;42.674;23.350;2022-11-04T04:25:09;94779.16;;;8.29;100.00
23164;BME280;31429;42.674;23.350;2022-11-04T04:26:30;94799.84;;;8.47;100.00
23164;BME280;31429;42.674;23.350;2022-11-04T04:27:54;94797.72;;;8.32;100.00
23164;BME280;31429;42.674;23.350;2022-11-04T04:28:56;94764.28;;;8.14;100.00
23164;BME280;31429;42.674;23.350;2022-11-04T04:30:03;94789.88;;;8.40;100.00
23164;BME280;31429;42.674;23.350;2022-11-04T04:31:05;94779.16;;;8.58;100.00
23164;BME280;31429;42.674;23.350;2022-11-04T04:32:08;94799.31;;;8.65;100.00
23164;BME280;31429;42.674;23.350;2022-11-04T04:33:12;94797.97;;;8.54;100.00
23164;BME280;31429;42.674;23.350;2022-11-04T04:34:15;94766.91;;;8.41;100.00
23164;BME280;31429;42.674;23.350;2022-11-04T04:35:19;94794.22;;;8.65;100.00
23164;BME280;31429;42.674;23.350;2022-11-04T04:36:47;94794.50;;;8.56;100.00
23164;BME280;31429;42.674;23.350;2022-11-04T04:37:51;94775.72;;;8.31;100.00
23164;BME280;31429;42.674;23.350;2022-11-04T04:38:53;94783.38;;;8.30;100.00
23164;BME280;31429;42.674;23.350;2022-11-04T04:40:27;94795.00;;;8.38;100.00
23164;BME280;31429;42.674;23.350;2022-11-04T04:41:48;94789.47;;;8.53;100.00
23164;BME280;31429;42.674;23.350;2022-11-04T04:43:13;94780.22;;;8.51;100.00
23164;BME280;31429;42.674;23.350;2022-11-04T04:44:33;94791.34;;;8.48;100.00
23164;BME280;31429;42.674;23.350;2022-11-04T04:45:54;94798.22;;;8.45;100.00
23164;BME280;31429;42.674;23.350;2022-11-04T04:46:57;94765.75;;;8.51;100.00
23164;BME280;31429;42.674;23.350;2022-11-04T04:47:58;94800.00;;;8.71;100.00
23164;BME280;31429;42.674;23.350;2022-11-04T04:49:04;94768.75;;;8.36;100.00
23164;BME280;31429;42.674;23.350;2022-11-04T04:50:07;94796.38;;;8.50;100.00
23164;BME280;31429;42.674;23.350;2022-11-04T04:51:08;94793.97;;;8.45;100.00
23164;BME280;31429;42.674;23.350;2022-11-04T04:52:09;94776.34;;;8.38;100.00
23164;BME280;31429;42.674;23.350;2022-11-04T04:53:10;94792.66;;;8.60;100.00
23164;BME280;31429;42.674;23.350;2022-11-04T04:54:10;94788.81;;;8.76;100.00
23164;BME280;31429;42.674;23.350;2022-11-04T04:55:12;94775.63;;;8.62;100.00
23164;BME280;31429;42.674;23.350;2022-11-04T04:56:13;94795.84;;;8.68;100.00
23164;BME280;31429;42.674;23.350;2022-11-04T04:57:13;94802.59;;;8.69;100.00
23164;BME280;31429;42.674;23.350;2022-11-04T04:58:14;94793.31;;;8.66;100.00
23164;BME280;31429;42.674;23.350;2022-11-04T04:59:15;94796.44;;;8.76;100.00
23164;BME280;31429;42.674;23.350;2022-11-04T05:00:17;94777.00;;;8.72;100.00
23164;BME280;31429;42.674;23.350;2022-11-04T05:01:18;94803.28;;;8.74;100.00
23164;BME280;31429;42.674;23.350;2022-11-04T05:02:19;94801.75;;;8.68;100.00
23164;BME280;31429;42.674;23.350;2022-11-04T05:03:20;94794.84;;;8.72;100.00
23164;BME280;31429;42.674;23.350;2022-11-04T05:04:22;94795.28;;;8.86;100.00
23164;BME280;31429;42.674;23.350;2022-11-04T05:05:22;94803.41;;;8.99;100.00
23164;BME280;31429;42.674;23.350;2022-11-04T05:06:23;94793.03;;;9.03;100.00
23164;BME280;31429;42.674;23.350;2022-11-04T05:07:24;94784.34;;;9.09;100.00
23164;BME280;31429;42.674;23.350;2022-11-04T05:08:25;94730.97;;;8.78;100.00
23164;BME280;31429;42.674;23.350;2022-11-04T05:09:25;94791.78;;;9.16;100.00
23164;BME280;31429;42.674;23.350;2022-11-04T05:10:26;94795.06;;;9.20;100.00
23164;BME280;31429;42.674;23.350;2022-11-04T05:11:26;94796.88;;;9.16;100.00
23164;BME280;31429;42.674;23.350;2022-11-04T05:12:27;94812.50;;;9.06;100.00
23164;BME280;31429;42.674;23.350;2022-11-04T05:13:50;94804.22;;;8.99;100.00
23164;BME280;31429;42.674;23.350;2022-11-04T05:14:51;94804.34;;;8.95;100.00
23164;BME280;31429;42.674;23.350;2022-11-04T05:15:52;94810.22;;;8.97;100.00
23164;BME280;31429;42.674;23.350;2022-11-04T05:16:53;94814.63;;;8.93;100.00
23164;BME280;31429;42.674;23.350;2022-11-04T05:17:53;94807.25;;;8.84;100.00
23164;BME280;31429;42.674;23.350;2022-11-04T05:18:55;94811.69;;;8.78;100.00
23164;BME280;31429;42.674;23.350;2022-11-04T05:19:57;94808.38;;;8.74;100.00
23164;BME280;31429;42.674;23.350;2022-11-04T05:20:57;94805.81;;;8.76;100.00
23164;BME280;31429;42.674;23.350;2022-11-04T05:21:58;94808.19;;;8.80;100.00
23164;BME280;31429;42.674;23.350;2022-11-04T05:22:59;94807.09;;;8.89;100.00
23164;BME280;31429;42.674;23.350;2022-11-04T05:23:59;94808.06;;;8.85;100.00
23164;BME280;31429;42.674;23.350;2022-11-04T05:25:00;94807.09;;;8.89;100.00
23164;BME280;31429;42.674;23.350;2022-11-04T05:26:01;94804.25;;;8.98;100.00
23164;BME280;31429;42.674;23.350;2022-11-04T05:27:02;94801.47;;;9.05;100.00
23164;BME280;31429;42.674;23.350;2022-11-04T05:28:03;94556.94;;;7.68;100.00
23164;BME280;31429;42.674;23.350;2022-11-04T05:29:03;94810.41;;;9.18;100.00
23164;BME280;31429;42.674;23.350;2022-11-04T05:30:05;94789.16;;;8.92;100.00
23164;BME280;31429;42.674;23.350;2022-11-04T05:31:06;94799.78;;;8.78;100.00
23164;BME280;31429;42.674;23.350;2022-11-04T05:32:07;94803.81;;;9.11;100.00
23164;BME280;31429;42.674;23.350;2022-11-04T05:33:07;94807.81;;;9.20;100.00
23164;BME280;31429;42.674;23.350;2022-11-04T05:34:09;94814.00;;;9.13;100.00
23164;BME280;31429;42.674;23.350;2022-11-04T05:35:11;94819.44;;;9.02;100.00
23164;BME280;31429;42.674;23.350;2022-11-04T05:36:14;94821.25;;;8.99;100.00
23164;BME280;31429;42.674;23.350;2022-11-04T05:37:15;94822.75;;;9.04;100.00
23164;BME280;31429;42.674;23.350;2022-11-04T05:38:15;94815.91;;;9.06;100.00
23164;BME280;31429;42.674;23.350;2022-11-04T05:39:16;94815.22;;;9.01;100.00
23164;BME280;31429;42.674;23.350;2022-11-04T05:40:17;94821.06;;;9.05;100.00
23164;BME280;31429;42.674;23.350;2022-11-04T05:41:18;94826.38;;;8.97;100.00
23164;BME280;31429;42.674;23.350;2022-11-04T05:42:25;94806.38;;;8.85;100.00